sensor_id;sensor_type;location;lat;lon;timestamp;pressure;altitude;pressure_sealevel;temperature;humidity
51926;BME280;37952;51.938;15.480;2023-12-14T00:00:08;98623.90;;;5.34;84.96
51926;BME280;37952;51.938;15.480;2023-12-14T00:03:31;98627.04;;;5.34;84.96
51926;BME280;37952;51.938;15.480;2023-12-14T00:06:34;98628.40;;;5.31;84.93
51926;BME280;37952;51.938;15.480;2023-12-14T00:09:37;98630.28;;;5.32;85.00
51926;BME280;37952;51.938;15.480;2023-12-14T00:12:40;98634.41;;;5.36;84.92
51926;BME280;37952;51.938;15.480;2023-12-14T00:15:43;98640.46;;;5.37;85.00
51926;BME280;37952;51.938;15.480;2023-12-14T00:18:47;98640.01;;;5.36;84.91
51926;BME280;37952;51.938;15.480;2023-12-14T00:21:50;98641.14;;;5.38;84.88
51926;BME280;37952;51.938;15.480;2023-12-14T00:24:53;98644.86;;;5.37;84.97
51926;BME280;37952;51.938;15.480;2023-12-14T00:27:56;98645.69;;;5.34;85.05
51926;BME280;37952;51.938;15.480;2023-12-14T00:30:59;98653.16;;;5.32;84.98
51926;BME280;37952;51.938;15.480;2023-12-14T00:34:02;98652.98;;;5.32;84.89
51926;BME280;37952;51.938;15.480;2023-12-14T00:37:06;98666.52;;;5.34;84.98
51926;BME280;37952;51.938;15.480;2023-12-14T00:40:09;98670.65;;;5.35;84.91
51926;BME280;37952;51.938;15.480;2023-12-14T00:43:12;98670.77;;;5.33;84.89
51926;BME280;37952;51.938;15.480;2023-12-14T00:46:15;98673.92;;;5.29;84.90
51926;BME280;37952;51.938;15.480;2023-12-14T00:49:18;98677.92;;;5.26;84.93
51926;BME280;37952;51.938;15.480;2023-12-14T00:52:22;98683.36;;;5.26;84.88
51926;BME280;37952;51.938;15.480;2023-12-14T00:55:25;98688.50;;;5.28;84.92
51926;BME280;37952;51.938;15.480;2023-12-14T00:58:28;98694.52;;;5.26;84.89
51926;BME280;37952;51.938;15.480;2023-12-14T01:01:33;98694.63;;;5.24;84.86
51926;BME280;37952;51.938;15.480;2023-12-14T01:04:37;98702.36;;;5.30;84.92
51926;BME280;37952;51.938;15.480;2023-12-14T01:07:40;98705.52;;;5.30;84.83
51926;BME280;37952;51.938;15.480;2023-12-14T01:10:43;98708.17;;;5.29;84.93
51926;BME280;37952;51.938;15.480;2023-12-14T01:13:47;98712.39;;;5.29;84.84
51926;BME280;37952;51.938;15.480;2023-12-14T01:16:50;98714.64;;;5.29;84.84
51926;BME280;37952;51.938;15.480;2023-12-14T01:19:53;98718.51;;;5.29;84.82
51926;BME280;37952;51.938;15.480;2023-12-14T01:22:56;98722.38;;;5.28;84.78
51926;BME280;37952;51.938;15.480;2023-12-14T01:25:59;98720.20;;;5.26;84.89
51926;BME280;37952;51.938;15.480;2023-12-14T01:29:02;98723.28;;;5.25;84.78
51926;BME280;37952;51.938;15.480;2023-12-14T01:32:05;98718.84;;;5.26;84.71
51926;BME280;37952;51.938;15.480;2023-12-14T01:35:09;98721.46;;;5.29;84.73
51926;BME280;37952;51.938;15.480;2023-12-14T01:38:12;98726.23;;;5.28;84.68
51926;BME280;37952;51.938;15.480;2023-12-14T01:41:16;98723.98;;;5.24;84.82
51926;BME280;37952;51.938;15.480;2023-12-14T01:44:19;98723.59;;;5.22;84.73
51926;BME280;37952;51.938;15.480;2023-12-14T01:47:22;98725.39;;;5.21;84.74
51926;BME280;37952;51.938;15.480;2023-12-14T01:50:25;98725.56;;;5.21;84.64
51926;BME280;37952;51.938;15.480;2023-12-14T01:53:28;98727.55;;;5.20;84.65
51926;BME280;37952;51.938;15.480;2023-12-14T01:56:31;98725.98;;;5.17;84.73
51926;BME280;37952;51.938;15.480;2023-12-14T01:59:34;98727.19;;;5.17;84.78
51926;BME280;37952;51.938;15.480;2023-12-14T02:02:37;98732.00;;;5.19;84.79
51926;BME280;37952;51.938;15.480;2023-12-14T02:05:42;98737.70;;;5.20;84.71
51926;BME280;37952;51.938;15.480;2023-12-14T02:08:45;98739.99;;;5.16;84.63
51926;BME280;37952;51.938;15.480;2023-12-14T02:11:48;98738.46;;;5.15;84.67
51926;BME280;37952;51.938;15.480;2023-12-14T02:14:52;98742.19;;;5.17;84.64
51926;BME280;37952;51.938;15.480;2023-12-14T02:17:55;98748.24;;;5.12;84.59
51926;BME280;37952;51.938;15.480;2023-12-14T02:20:58;98748.27;;;5.09;84.55
51926;BME280;37952;51.938;15.480;2023-12-14T02:24:01;98752.45;;;5.05;84.59
51926;BME280;37952;51.938;15.480;2023-12-14T02:27:04;98756.61;;;5.02;84.52
51926;BME280;37952;51.938;15.480;2023-12-14T02:30:07;98761.42;;;5.00;84.56
51926;BME280;37952;51.938;15.480;2023-12-14T02:33:10;98763.60;;;4.99;84.48
51926;BME280;37952;51.938;15.480;2023-12-14T02:36:13;98770.50;;;4.98;84.49
51926;BME280;37952;51.938;15.480;2023-12-14T02:39:16;98778.61;;;4.96;84.57
51926;BME280;37952;51.938;15.480;2023-12-14T02:42:19;98783.14;;;4.93;84.56
51926;BME280;37952;51.938;15.480;2023-12-14T02:45:22;98785.34;;;4.88;84.48
51926;BME280;37952;51.938;15.480;2023-12-14T02:48:25;98789.42;;;4.86;84.58
51926;BME280;37952;51.938;15.480;2023-12-14T02:51:28;98794.70;;;4.86;84.46
51926;BME280;37952;51.938;15.480;2023-12-14T02:54:31;98794.52;;;4.83;84.41
51926;BME280;37952;51.938;15.480;2023-12-14T02:57:34;98792.27;;;4.78;84.40
51926;BME280;37952;51.938;15.480;2023-12-14T03:00:37;98802.55;;;4.79;84.44
51926;BME280;37952;51.938;15.480;2023-12-14T03:03:40;98804.70;;;4.81;84.49
51926;BME280;37952;51.938;15.480;2023-12-14T03:06:43;98806.02;;;4.83;84.49
51926;BME280;37952;51.938;15.480;2023-12-14T03:09:46;98811.95;;;4.83;84.44
51926;BME280;37952;51.938;15.480;2023-12-14T03:12:49;98814.20;;;4.87;84.48
51926;BME280;37952;51.938;15.480;2023-12-14T03:15:52;98812.20;;;4.88;84.50
51926;BME280;37952;51.938;15.480;2023-12-14T03:18:55;98818.50;;;4.88;84.57
51926;BME280;37952;51.938;15.480;2023-12-14T03:21:59;98820.28;;;4.87;84.46
51926;BME280;37952;51.938;15.480;2023-12-14T03:25:02;98826.27;;;4.83;84.32
51926;BME280;37952;51.938;15.480;2023-12-14T03:28:06;98830.31;;;4.79;84.38
51926;BME280;37952;51.938;15.480;2023-12-14T03:31:10;98835.40;;;4.78;84.42
51926;BME280;37952;51.938;15.480;2023-12-14T03:34:14;98837.98;;;4.76;84.36
51926;BME280;37952;51.938;15.480;2023-12-14T03:37:17;98842.64;;;4.74;84.40
51926;BME280;37952;51.938;15.480;2023-12-14T03:40:20;98845.81;;;4.69;84.39
51926;BME280;37952;51.938;15.480;2023-12-14T03:43:23;98849.43;;;4.67;84.33
51926;BME280;37952;51.938;15.480;2023-12-14T03:46:26;98849.66;;;4.66;84.36
51926;BME280;37952;51.938;15.480;2023-12-14T03:49:29;98856.86;;;4.68;84.36
51926;BME280;37952;51.938;15.480;2023-12-14T03:52:32;98857.39;;;4.68;84.36
51926;BME280;37952;51.938;15.480;2023-12-14T03:55:35;98864.11;;;4.66;84.38
51926;BME280;37952;51.938;15.480;2023-12-14T03:58:38;98860.72;;;4.64;84.35
51926;BME280;37952;51.938;15.480;2023-12-14T04:01:41;98864.22;;;4.64;84.22
51926;BME280;37952;51.938;15.480;2023-12-14T04:04:44;98863.67;;;4.65;84.35
51926;BME280;37952;51.938;15.480;2023-12-14T04:07:50;98866.58;;;4.62;84.30
51926;BME280;37952;51.938;15.480;2023-12-14T04:10:53;98873.63;;;4.61;84.20
51926;BME280;37952;51.938;15.480;2023-12-14T04:13:56;98881.47;;;4.58;84.28
51926;BME280;37952;51.938;15.480;2023-12-14T04:16:59;98887.73;;;4.59;84.34
51926;BME280;37952;51.938;15.480;2023-12-14T04:20:02;98887.27;;;4.57;84.32
51926;BME280;37952;51.938;15.480;2023-12-14T04:23:05;98891.46;;;4.53;84.22
51926;BME280;37952;51.938;15.480;2023-12-14T04:26:09;98890.08;;;4.50;84.19
51926;BME280;37952;51.938;15.480;2023-12-14T04:29:13;98896.87;;;4.50;84.21
51926;BME280;37952;51.938;15.480;2023-12-14T04:32:15;98896.19;;;4.42;84.19
51926;BME280;37952;51.938;15.480;2023-12-14T04:35:18;98903.98;;;4.40;84.21
51926;BME280;37952;51.938;15.480;2023-12-14T04:38:21;98915.11;;;4.41;84.22
51926;BME280;37952;51.938;15.480;2023-12-14T04:41:24;98921.02;;;4.41;84.23
51926;BME280;37952;51.938;15.480;2023-12-14T04:44:28;98920.95;;;4.43;84.32
51926;BME280;37952;51.938;15.480;2023-12-14T04:47:31;98924.33;;;4.45;84.19
51926;BME280;37952;51.938;15.480;2023-12-14T04:50:34;98926.91;;;4.42;84.24
51926;BME280;37952;51.938;15.480;2023-12-14T04:53:37;98929.27;;;4.40;84.27
51926;BME280;37952;51.938;15.480;2023-12-14T04:56:40;98926.49;;;4.40;84.26
51926;BME280;37952;51.938;15.480;2023-12-14T04:59:44;98926.14;;;4.44;84.19
51926;BME280;37952;51.938;15.480;2023-12-14T05:02:47;98932.48;;;4.46;84.30
51926;BME280;37952;51.938;15.480;2023-12-14T05:05:51;98938.16;;;4.48;84.18
51926;BME280;37952;51.938;15.480;2023-12-14T05:08:54;98944.45;;;4.48;84.22
51926;BME280;37952;51.938;15.480;2023-12-14T05:11:58;98948.63;;;4.48;84.28
51926;BME280;37952;51.938;15.480;2023-12-14T05:15:01;98955.62;;;4.48;84.28
51926;BME280;37952;51.938;15.480;2023-12-14T05:18:04;98964.46;;;4.48;84.22
51926;BME280;37952;51.938;15.480;2023-12-14T05:21:07;98969.38;;;4.48;84.20
51926;BME280;37952;51.938;15.480;2023-12-14T05:24:10;98972.58;;;4.47;84.21
51926;BME280;37952;51.938;15.480;2023-12-14T05:27:13;98976.73;;;4.47;84.21
51926;BME280;37952;51.938;15.480;2023-12-14T05:30:17;98982.49;;;4.44;84.23
51926;BME280;37952;51.938;15.480;2023-12-14T05:33:21;98988.50;;;4.42;84.24
51926;BME280;37952;51.938;15.480;2023-12-14T05:36:24;98991.75;;;4.44;84.19
51926;BME280;37952;51.938;15.480;2023-12-14T05:39:27;98995.40;;;4.44;84.14
51926;BME280;37952;51.938;15.480;2023-12-14T05:42:30;98999.51;;;4.46;84.20
51926;BME280;37952;51.938;15.480;2023-12-14T05:45:33;99003.04;;;4.45;84.21
51926;BME280;37952;51.938;15.480;2023-12-14T05:48:37;99006.63;;;4.50;84.18
51926;BME280;37952;51.938;15.480;2023-12-14T05:51:40;99010.59;;;4.51;84.25
51926;BME280;37952;51.938;15.480;2023-12-14T05:54:43;99017.02;;;4.52;84.21
51926;BME280;37952;51.938;15.480;2023-12-14T05:57:46;99027.96;;;4.53;84.25
51926;BME280;37952;51.938;15.480;2023-12-14T06:00:50;99031.71;;;4.54;84.17
51926;BME280;37952;51.938;15.480;2023-12-14T06:03:53;99038.60;;;4.53;84.17
51926;BME280;37952;51.938;15.480;2023-12-14T06:06:56;99043.77;;;4.51;84.10
51926;BME280;37952;51.938;15.480;2023-12-14T06:09:59;99048.59;;;4.48;84.09
51926;BME280;37952;51.938;15.480;2023-12-14T06:13:03;99051.55;;;4.45;84.15
51926;BME280;37952;51.938;15.480;2023-12-14T06:16:06;99061.80;;;4.42;84.15
51926;BME280;37952;51.938;15.480;2023-12-14T06:19:17;99061.98;;;4.42;84.09
51926;BME280;37952;51.938;15.480;2023-12-14T06:22:20;99065.88;;;4.41;84.06
51926;BME280;37952;51.938;15.480;2023-12-14T06:25:23;99066.37;;;4.41;84.07
51926;BME280;37952;51.938;15.480;2023-12-14T06:28:26;99071.56;;;4.42;84.11
51926;BME280;37952;51.938;15.480;2023-12-14T06:31:29;99070.39;;;4.45;84.09
51926;BME280;37952;51.938;15.480;2023-12-14T06:34:32;99074.42;;;4.44;84.11
51926;BME280;37952;51.938;15.480;2023-12-14T06:37:35;99076.21;;;4.43;84.05
51926;BME280;37952;51.938;15.480;2023-12-14T06:40:38;99084.79;;;4.43;84.05
51926;BME280;37952;51.938;15.480;2023-12-14T06:43:41;99087.86;;;4.44;84.05
51926;BME280;37952;51.938;15.480;2023-12-14T06:46:44;99093.66;;;4.43;83.98
51926;BME280;37952;51.938;15.480;2023-12-14T06:49:47;99099.27;;;4.43;84.08
51926;BME280;37952;51.938;15.480;2023-12-14T06:52:51;99104.57;;;4.41;84.01
51926;BME280;37952;51.938;15.480;2023-12-14T06:55:54;99110.58;;;4.40;84.04
51926;BME280;37952;51.938;15.480;2023-12-14T06:58:57;99113.22;;;4.39;83.99
51926;BME280;37952;51.938;15.480;2023-12-14T07:02:00;99112.48;;;4.37;83.96
51926;BME280;37952;51.938;15.480;2023-12-14T07:05:03;99116.46;;;4.33;83.93
51926;BME280;37952;51.938;15.480;2023-12-14T07:08:06;99126.14;;;4.35;83.99
51926;BME280;37952;51.938;15.480;2023-12-14T07:11:10;99130.49;;;4.35;83.96
51926;BME280;37952;51.938;15.480;2023-12-14T07:14:13;99133.52;;;4.38;83.99
51926;BME280;37952;51.938;15.480;2023-12-14T07:17:18;99137.38;;;4.41;83.97
51926;BME280;37952;51.938;15.480;2023-12-14T07:20:21;99146.11;;;4.45;84.02
51926;BME280;37952;51.938;15.480;2023-12-14T07:23:24;99145.95;;;4.49;83.99
51926;BME280;37952;51.938;15.480;2023-12-14T07:26:27;99148.65;;;4.50;84.02
51926;BME280;37952;51.938;15.480;2023-12-14T07:29:31;99155.56;;;4.52;84.03
51926;BME280;37952;51.938;15.480;2023-12-14T07:32:34;99161.42;;;4.54;84.05
51926;BME280;37952;51.938;15.480;2023-12-14T07:35:37;99166.63;;;4.54;84.00
51926;BME280;37952;51.938;15.480;2023-12-14T07:38:40;99172.15;;;4.52;83.92
51926;BME280;37952;51.938;15.480;2023-12-14T07:41:43;99181.77;;;4.47;83.96
51926;BME280;37952;51.938;15.480;2023-12-14T07:44:46;99186.06;;;4.46;83.93
51926;BME280;37952;51.938;15.480;2023-12-14T07:47:49;99194.02;;;4.43;83.89
51926;BME280;37952;51.938;15.480;2023-12-14T07:50:53;99204.13;;;4.39;83.88
51926;BME280;37952;51.938;15.480;2023-12-14T07:53:56;99210.61;;;4.38;83.88
51926;BME280;37952;51.938;15.480;2023-12-14T07:56:59;99215.46;;;4.39;83.98
51926;BME280;37952;51.938;15.480;2023-12-14T08:00:02;99225.84;;;4.38;83.88
51926;BME280;37952;51.938;15.480;2023-12-14T08:03:06;99228.31;;;4.37;83.96
51926;BME280;37952;51.938;15.480;2023-12-14T08:06:09;99237.68;;;4.34;83.90
51926;BME280;37952;51.938;15.480;2023-12-14T08:09:15;99241.43;;;4.32;83.88
51926;BME280;37952;51.938;15.480;2023-12-14T08:12:18;99247.34;;;4.33;83.82
51926;BME280;37952;51.938;15.480;2023-12-14T08:15:21;99251.67;;;4.33;83.93
51926;BME280;37952;51.938;15.480;2023-12-14T08:18:24;99260.52;;;4.34;83.86
51926;BME280;37952;51.938;15.480;2023-12-14T08:21:27;99267.65;;;4.35;83.85
51926;BME280;37952;51.938;15.480;2023-12-14T08:24:30;99271.55;;;4.34;83.80
51926;BME280;37952;51.938;15.480;2023-12-14T08:27:33;99279.78;;;4.33;83.87
51926;BME280;37952;51.938;15.480;2023-12-14T08:30:36;99280.94;;;4.31;83.81
51926;BME280;37952;51.938;15.480;2023-12-14T08:33:41;99284.16;;;4.28;83.89
51926;BME280;37952;51.938;15.480;2023-12-14T08:36:49;99286.54;;;4.25;83.82
51926;BME280;37952;51.938;15.480;2023-12-14T08:39:52;99292.30;;;4.25;83.78
51926;BME280;37952;51.938;15.480;2023-12-14T08:42:57;99294.98;;;4.24;83.83
51926;BME280;37952;51.938;15.480;2023-12-14T08:46:00;99303.68;;;4.25;83.76
51926;BME280;37952;51.938;15.480;2023-12-14T08:49:03;99306.83;;;4.25;83.72
51926;BME280;37952;51.938;15.480;2023-12-14T08:52:07;99319.74;;;4.24;83.72
51926;BME280;37952;51.938;15.480;2023-12-14T08:55:10;99316.50;;;4.23;83.73
51926;BME280;37952;51.938;15.480;2023-12-14T08:58:13;99320.50;;;4.23;83.72
51926;BME280;37952;51.938;15.480;2023-12-14T09:01:20;99324.27;;;4.24;83.68
51926;BME280;37952;51.938;15.480;2023-12-14T09:04:24;99334.95;;;4.19;83.61
51926;BME280;37952;51.938;15.480;2023-12-14T09:07:27;99343.23;;;4.17;83.50
51926;BME280;37952;51.938;15.480;2023-12-14T09:10:30;99351.63;;;4.16;83.52
51926;BME280;37952;51.938;15.480;2023-12-14T09:13:33;99360.01;;;4.12;83.50
51926;BME280;37952;51.938;15.480;2023-12-14T09:16:36;99368.40;;;4.12;83.57
51926;BME280;37952;51.938;15.480;2023-12-14T09:19:40;99372.95;;;4.12;83.53
51926;BME280;37952;51.938;15.480;2023-12-14T09:22:43;99380.25;;;4.08;83.49
51926;BME280;37952;51.938;15.480;2023-12-14T09:25:46;99383.32;;;4.09;83.50
51926;BME280;37952;51.938;15.480;2023-12-14T09:28:50;99385.23;;;4.09;83.47
51926;BME280;37952;51.938;15.480;2023-12-14T09:31:53;99388.08;;;4.08;83.43
51926;BME280;37952;51.938;15.480;2023-12-14T09:34:56;99390.68;;;4.08;83.49
51926;BME280;37952;51.938;15.480;2023-12-14T09:37:59;99391.50;;;4.09;83.41
51926;BME280;37952;51.938;15.480;2023-12-14T09:41:02;99397.49;;;4.08;83.45
51926;BME280;37952;51.938;15.480;2023-12-14T09:44:06;99398.27;;;4.06;83.41
51926;BME280;37952;51.938;15.480;2023-12-14T09:47:10;99398.77;;;4.02;83.34
51926;BME280;37952;51.938;15.480;2023-12-14T09:50:13;99400.05;;;3.96;83.24
51926;BME280;37952;51.938;15.480;2023-12-14T09:53:17;99401.95;;;3.92;83.27
51926;BME280;37952;51.938;15.480;2023-12-14T09:56:21;99408.39;;;3.92;83.21
51926;BME280;37952;51.938;15.480;2023-12-14T09:59:24;99409.02;;;3.94;83.24
51926;BME280;37952;51.938;15.480;2023-12-14T10:02:27;99414.98;;;3.98;83.23
51926;BME280;37952;51.938;15.480;2023-12-14T10:05:30;99418.05;;;4.00;83.26
51926;BME280;37952;51.938;15.480;2023-12-14T10:08:33;99421.98;;;4.02;83.20
51926;BME280;37952;51.938;15.480;2023-12-14T10:11:36;99423.81;;;4.04;83.27
51926;BME280;37952;51.938;15.480;2023-12-14T10:14:39;99420.38;;;4.03;83.14
51926;BME280;37952;51.938;15.480;2023-12-14T10:17:42;99423.46;;;3.99;83.14
51926;BME280;37952;51.938;15.480;2023-12-14T10:20:46;99427.00;;;3.98;83.12
51926;BME280;37952;51.938;15.480;2023-12-14T10:23:49;99430.73;;;3.96;83.07
51926;BME280;37952;51.938;15.480;2023-12-14T10:26:52;99430.58;;;3.91;82.93
51926;BME280;37952;51.938;15.480;2023-12-14T10:29:55;99428.16;;;3.86;82.97
51926;BME280;37952;51.938;15.480;2023-12-14T10:32:58;99431.90;;;3.88;82.96
51926;BME280;37952;51.938;15.480;2023-12-14T10:36:03;99437.14;;;3.88;82.96
51926;BME280;37952;51.938;15.480;2023-12-14T10:39:11;99440.02;;;3.86;82.89
51926;BME280;37952;51.938;15.480;2023-12-14T10:42:18;99448.61;;;3.89;83.00
51926;BME280;37952;51.938;15.480;2023-12-14T10:45:25;99449.11;;;3.90;82.95
51926;BME280;37952;51.938;15.480;2023-12-14T10:48:30;99453.17;;;3.88;82.91
51926;BME280;37952;51.938;15.480;2023-12-14T10:51:34;99452.65;;;3.88;82.99
51926;BME280;37952;51.938;15.480;2023-12-14T10:54:39;99453.77;;;3.87;82.92
51926;BME280;37952;51.938;15.480;2023-12-14T10:57:45;99455.41;;;3.89;82.90
51926;BME280;37952;51.938;15.480;2023-12-14T11:00:59;99462.52;;;3.90;82.87
51926;BME280;37952;51.938;15.480;2023-12-14T11:04:05;99466.00;;;3.90;82.77
51926;BME280;37952;51.938;15.480;2023-12-14T11:07:10;99470.13;;;3.87;82.72
51926;BME280;37952;51.938;15.480;2023-12-14T11:10:13;99475.13;;;3.84;82.72
51926;BME280;37952;51.938;15.480;2023-12-14T11:13:17;99477.93;;;3.84;82.72
51926;BME280;37952;51.938;15.480;2023-12-14T11:16:20;99489.20;;;3.86;82.72
51926;BME280;37952;51.938;15.480;2023-12-14T11:19:29;99490.27;;;3.85;82.66
51926;BME280;37952;51.938;15.480;2023-12-14T11:22:33;99494.73;;;3.87;82.72
51926;BME280;37952;51.938;15.480;2023-12-14T11:25:37;99504.28;;;3.88;82.70
51926;BME280;37952;51.938;15.480;2023-12-14T11:28:47;99502.50;;;3.89;82.76
51926;BME280;37952;51.938;15.480;2023-12-14T11:31:52;99505.41;;;3.90;82.73
51926;BME280;37952;51.938;15.480;2023-12-14T11:34:55;99513.02;;;3.92;82.78
51926;BME280;37952;51.938;15.480;2023-12-14T11:37:58;99510.48;;;3.90;82.72
51926;BME280;37952;51.938;15.480;2023-12-14T11:41:03;99507.98;;;3.91;82.76
51926;BME280;37952;51.938;15.480;2023-12-14T11:44:06;99513.11;;;3.89;82.69
51926;BME280;37952;51.938;15.480;2023-12-14T11:47:09;99514.46;;;3.91;82.79
51926;BME280;37952;51.938;15.480;2023-12-14T11:50:12;99520.33;;;3.88;82.70
51926;BME280;37952;51.938;15.480;2023-12-14T11:53:17;99523.34;;;3.87;82.71
51926;BME280;37952;51.938;15.480;2023-12-14T11:56:20;99527.98;;;3.88;82.71
51926;BME280;37952;51.938;15.480;2023-12-14T11:59:26;99530.73;;;3.85;82.68
51926;BME280;37952;51.938;15.480;2023-12-14T12:02:29;99537.75;;;3.78;82.62
51926;BME280;37952;51.938;15.480;2023-12-14T12:05:35;99541.01;;;3.80;82.68
51926;BME280;37952;51.938;15.480;2023-12-14T12:08:41;99544.13;;;3.76;82.61
51926;BME280;37952;51.938;15.480;2023-12-14T12:11:45;99539.43;;;3.71;82.51
51926;BME280;37952;51.938;15.480;2023-12-14T12:14:48;99543.17;;;3.73;82.55
51926;BME280;37952;51.938;15.480;2023-12-14T12:17:55;99545.68;;;3.66;82.56
51926;BME280;37952;51.938;15.480;2023-12-14T12:20:58;99548.26;;;3.57;82.58
51926;BME280;37952;51.938;15.480;2023-12-14T12:24:06;99552.11;;;3.57;82.59
51926;BME280;37952;51.938;15.480;2023-12-14T12:27:28;99552.40;;;3.59;82.63
51926;BME280;37952;51.938;15.480;2023-12-14T12:30:30;99558.67;;;3.59;82.61
51926;BME280;37952;51.938;15.480;2023-12-14T12:33:34;99561.20;;;3.61;82.76
51926;BME280;37952;51.938;15.480;2023-12-14T12:36:41;99564.08;;;3.64;82.75
51926;BME280;37952;51.938;15.480;2023-12-14T12:39:44;99573.30;;;3.64;82.68
51926;BME280;37952;51.938;15.480;2023-12-14T12:42:47;99575.72;;;3.64;82.55
51926;BME280;37952;51.938;15.480;2023-12-14T12:45:51;99579.33;;;3.66;82.55
51926;BME280;37952;51.938;15.480;2023-12-14T12:48:54;99581.90;;;3.72;82.61
51926;BME280;37952;51.938;15.480;2023-12-14T12:51:57;99582.08;;;3.77;82.70
51926;BME280;37952;51.938;15.480;2023-12-14T12:55:00;99590.17;;;3.80;82.58
51926;BME280;37952;51.938;15.480;2023-12-14T12:58:03;99593.77;;;3.76;82.57
51926;BME280;37952;51.938;15.480;2023-12-14T13:01:09;99593.83;;;3.75;82.66
51926;BME280;37952;51.938;15.480;2023-12-14T13:04:18;99598.36;;;3.70;82.50
51926;BME280;37952;51.938;15.480;2023-12-14T13:07:22;99604.35;;;3.63;82.52
51926;BME280;37952;51.938;15.480;2023-12-14T13:10:25;99608.46;;;3.60;82.39
51926;BME280;37952;51.938;15.480;2023-12-14T13:13:34;99616.65;;;3.60;82.48
51926;BME280;37952;51.938;15.480;2023-12-14T13:16:37;99615.31;;;3.59;82.39
51926;BME280;37952;51.938;15.480;2023-12-14T13:19:40;99619.64;;;3.54;82.41
51926;BME280;37952;51.938;15.480;2023-12-14T13:22:43;99630.23;;;3.50;82.45
51926;BME280;37952;51.938;15.480;2023-12-14T13:25:46;99635.05;;;3.46;82.53
51926;BME280;37952;51.938;15.480;2023-12-14T13:28:50;99634.00;;;3.41;82.56
51926;BME280;37952;51.938;15.480;2023-12-14T13:31:53;99639.44;;;3.35;82.63
51926;BME280;37952;51.938;15.480;2023-12-14T13:34:56;99646.81;;;3.34;82.55
51926;BME280;37952;51.938;15.480;2023-12-14T13:37:59;99649.38;;;3.35;82.64
51926;BME280;37952;51.938;15.480;2023-12-14T13:41:02;99655.85;;;3.34;82.67
51926;BME280;37952;51.938;15.480;2023-12-14T13:44:06;99662.04;;;3.31;82.66
51926;BME280;37952;51.938;15.480;2023-12-14T13:47:08;99671.91;;;3.33;82.71
51926;BME280;37952;51.938;15.480;2023-12-14T13:50:12;99680.50;;;3.31;82.82
51926;BME280;37952;51.938;15.480;2023-12-14T13:53:14;99680.59;;;3.34;82.80
51926;BME280;37952;51.938;15.480;2023-12-14T13:56:20;99688.30;;;3.27;82.73
51926;BME280;37952;51.938;15.480;2023-12-14T13:59:23;99694.39;;;3.27;82.73
51926;BME280;37952;51.938;15.480;2023-12-14T14:02:26;99701.38;;;3.26;82.80
51926;BME280;37952;51.938;15.480;2023-12-14T14:05:31;99707.23;;;3.29;82.85
51926;BME280;37952;51.938;15.480;2023-12-14T14:08:34;99713.69;;;3.28;82.85
51926;BME280;37952;51.938;15.480;2023-12-14T14:11:38;99720.98;;;3.23;82.81
51926;BME280;37952;51.938;15.480;2023-12-14T14:14:44;99731.02;;;3.19;82.83
51926;BME280;37952;51.938;15.480;2023-12-14T14:17:47;99734.70;;;3.13;82.73
51926;BME280;37952;51.938;15.480;2023-12-14T14:20:55;99734.50;;;3.08;82.84
51926;BME280;37952;51.938;15.480;2023-12-14T14:23:58;99740.46;;;3.06;82.79
51926;BME280;37952;51.938;15.480;2023-12-14T14:27:01;99740.29;;;3.07;82.75
51926;BME280;37952;51.938;15.480;2023-12-14T14:30:04;99747.53;;;3.09;82.88
51926;BME280;37952;51.938;15.480;2023-12-14T14:33:07;99749.59;;;3.11;82.97
51926;BME280;37952;51.938;15.480;2023-12-14T14:36:10;99753.41;;;3.05;82.85
51926;BME280;37952;51.938;15.480;2023-12-14T14:39:13;99754.30;;;3.04;82.92
51926;BME280;37952;51.938;15.480;2023-12-14T14:42:17;99758.61;;;3.05;82.90
51926;BME280;37952;51.938;15.480;2023-12-14T14:45:22;99768.52;;;3.06;83.00
51926;BME280;37952;51.938;15.480;2023-12-14T14:48:25;99776.18;;;3.06;82.98
51926;BME280;37952;51.938;15.480;2023-12-14T14:51:28;99787.61;;;3.09;82.90
51926;BME280;37952;51.938;15.480;2023-12-14T14:54:32;99795.33;;;3.13;83.01
51926;BME280;37952;51.938;15.480;2023-12-14T14:57:35;99801.45;;;3.17;82.94
51926;BME280;37952;51.938;15.480;2023-12-14T15:00:38;99809.59;;;3.19;82.93
51926;BME280;37952;51.938;15.480;2023-12-14T15:03:44;99818.25;;;3.21;82.95
51926;BME280;37952;51.938;15.480;2023-12-14T15:06:47;99827.70;;;3.25;82.98
51926;BME280;37952;51.938;15.480;2023-12-14T15:09:50;99829.01;;;3.28;83.09
51926;BME280;37952;51.938;15.480;2023-12-14T15:12:53;99837.58;;;3.33;82.98
51926;BME280;37952;51.938;15.480;2023-12-14T15:15:56;99840.09;;;3.37;83.08
51926;BME280;37952;51.938;15.480;2023-12-14T15:18:59;99847.80;;;3.35;83.10
51926;BME280;37952;51.938;15.480;2023-12-14T15:22:02;99856.16;;;3.29;82.93
51926;BME280;37952;51.938;15.480;2023-12-14T15:25:05;99857.30;;;3.26;82.97
51926;BME280;37952;51.938;15.480;2023-12-14T15:28:08;99861.02;;;3.24;82.95
51926;BME280;37952;51.938;15.480;2023-12-14T15:31:11;99864.45;;;3.25;83.01
51926;BME280;37952;51.938;15.480;2023-12-14T15:34:14;99870.36;;;3.26;83.01
51926;BME280;37952;51.938;15.480;2023-12-14T15:37:17;99880.73;;;3.23;82.97
51926;BME280;37952;51.938;15.480;2023-12-14T15:40:20;99888.95;;;3.22;82.93
51926;BME280;37952;51.938;15.480;2023-12-14T15:43:23;99896.34;;;3.19;82.97
51926;BME280;37952;51.938;15.480;2023-12-14T15:46:26;99904.34;;;3.19;83.02
51926;BME280;37952;51.938;15.480;2023-12-14T15:49:29;99904.45;;;3.22;83.05
51926;BME280;37952;51.938;15.480;2023-12-14T15:52:32;99917.03;;;3.20;83.01
51926;BME280;37952;51.938;15.480;2023-12-14T15:55:35;99922.45;;;3.19;82.97
51926;BME280;37952;51.938;15.480;2023-12-14T15:58:39;99924.34;;;3.21;82.88
51926;BME280;37952;51.938;15.480;2023-12-14T16:01:41;99924.12;;;3.23;83.02
51926;BME280;37952;51.938;15.480;2023-12-14T16:04:49;99923.55;;;3.24;82.93
51926;BME280;37952;51.938;15.480;2023-12-14T16:07:52;99931.92;;;3.23;82.94
51926;BME280;37952;51.938;15.480;2023-12-14T16:10:55;99940.51;;;3.22;82.91